sensor_id;sensor_type;location;lat;lon;timestamp;P1;durP1;ratioP1;P2;durP2;ratioP2
16906;SDS011;8570;52.380;4.654;2022-09-17T00:00:36;16.98;;;2.50;;
16906;SDS011;8570;52.380;4.654;2022-09-17T00:05:40;19.52;;;2.30;;
16906;SDS011;8570;52.380;4.654;2022-09-17T00:10:42;12.77;;;2.75;;
16906;SDS011;8570;52.380;4.654;2022-09-17T00:15:45;9.20;;;2.08;;
16906;SDS011;8570;52.380;4.654;2022-09-17T00:20:48;10.93;;;2.45;;
16906;SDS011;8570;52.380;4.654;2022-09-17T00:25:50;8.05;;;2.40;;
16906;SDS011;8570;52.380;4.654;2022-09-17T00:30:52;11.93;;;2.38;;
16906;SDS011;8570;52.380;4.654;2022-09-17T00:35:59;5.80;;;2.40;;
16906;SDS011;8570;52.380;4.654;2022-09-17T00:41:02;18.00;;;2.72;;
16906;SDS011;8570;52.380;4.654;2022-09-17T00:46:07;11.27;;;2.10;;
16906;SDS011;8570;52.380;4.654;2022-09-17T00:51:19;10.43;;;2.03;;
16906;SDS011;8570;52.380;4.654;2022-09-17T00:56:26;9.60;;;1.95;;
16906;SDS011;8570;52.380;4.654;2022-09-17T01:01:30;12.93;;;2.45;;
16906;SDS011;8570;52.380;4.654;2022-09-17T01:06:36;11.25;;;2.35;;
16906;SDS011;8570;52.380;4.654;2022-09-17T01:11:47;14.98;;;3.33;;
16906;SDS011;8570;52.380;4.654;2022-09-17T01:17:05;12.15;;;2.35;;
16906;SDS011;8570;52.380;4.654;2022-09-17T01:22:17;22.35;;;4.00;;
16906;SDS011;8570;52.380;4.654;2022-09-17T01:33:01;15.75;;;2.83;;
16906;SDS011;8570;52.380;4.654;2022-09-17T01:38:10;14.10;;;2.53;;
16906;SDS011;8570;52.380;4.654;2022-09-17T01:43:21;11.82;;;2.70;;
16906;SDS011;8570;52.380;4.654;2022-09-17T01:48:28;13.73;;;2.28;;
16906;SDS011;8570;52.380;4.654;2022-09-17T01:53:34;7.50;;;2.20;;
16906;SDS011;8570;52.380;4.654;2022-09-17T01:58:41;7.88;;;1.90;;
16906;SDS011;8570;52.380;4.654;2022-09-17T02:03:52;9.02;;;2.22;;
16906;SDS011;8570;52.380;4.654;2022-09-17T02:08:59;14.30;;;2.63;;
16906;SDS011;8570;52.380;4.654;2022-09-17T02:14:06;14.45;;;2.80;;
16906;SDS011;8570;52.380;4.654;2022-09-17T02:19:14;12.95;;;2.50;;
16906;SDS011;8570;52.380;4.654;2022-09-17T02:24:19;13.00;;;2.70;;
16906;SDS011;8570;52.380;4.654;2022-09-17T02:29:25;15.60;;;3.28;;
16906;SDS011;8570;52.380;4.654;2022-09-17T02:34:34;17.02;;;3.08;;
16906;SDS011;8570;52.380;4.654;2022-09-17T02:39:36;16.95;;;3.10;;
16906;SDS011;8570;52.380;4.654;2022-09-17T02:44:41;15.90;;;2.63;;
16906;SDS011;8570;52.380;4.654;2022-09-17T02:50:00;16.23;;;2.95;;
16906;SDS011;8570;52.380;4.654;2022-09-17T02:55:16;12.57;;;2.85;;
16906;SDS011;8570;52.380;4.654;2022-09-17T03:00:21;14.55;;;2.92;;
16906;SDS011;8570;52.380;4.654;2022-09-17T03:05:26;11.05;;;2.42;;
16906;SDS011;8570;52.380;4.654;2022-09-17T03:10:30;11.30;;;2.28;;
16906;SDS011;8570;52.380;4.654;2022-09-17T03:15:32;6.85;;;1.67;;
16906;SDS011;8570;52.380;4.654;2022-09-17T03:20:35;7.05;;;1.85;;
16906;SDS011;8570;52.380;4.654;2022-09-17T03:25:37;8.77;;;1.85;;
16906;SDS011;8570;52.380;4.654;2022-09-17T03:30:39;9.00;;;1.70;;
16906;SDS011;8570;52.380;4.654;2022-09-17T03:35:43;6.50;;;1.80;;
16906;SDS011;8570;52.380;4.654;2022-09-17T03:40:55;12.50;;;2.20;;
16906;SDS011;8570;52.380;4.654;2022-09-17T03:45:57;7.35;;;1.90;;
16906;SDS011;8570;52.380;4.654;2022-09-17T03:51:00;9.05;;;2.00;;
16906;SDS011;8570;52.380;4.654;2022-09-17T03:56:04;7.28;;;1.27;;
16906;SDS011;8570;52.380;4.654;2022-09-17T04:01:06;4.22;;;1.30;;
16906;SDS011;8570;52.380;4.654;2022-09-17T04:06:10;9.05;;;2.30;;
16906;SDS011;8570;52.380;4.654;2022-09-17T04:11:12;9.23;;;1.65;;
16906;SDS011;8570;52.380;4.654;2022-09-17T04:16:14;9.45;;;1.77;;
16906;SDS011;8570;52.380;4.654;2022-09-17T04:21:17;7.18;;;1.23;;
16906;SDS011;8570;52.380;4.654;2022-09-17T04:26:19;6.35;;;1.67;;
16906;SDS011;8570;52.380;4.654;2022-09-17T04:31:21;14.70;;;1.90;;
16906;SDS011;8570;52.380;4.654;2022-09-17T04:36:27;15.35;;;1.58;;
16906;SDS011;8570;52.380;4.654;2022-09-17T04:41:29;13.07;;;2.00;;
16906;SDS011;8570;52.380;4.654;2022-09-17T04:46:31;7.97;;;1.60;;
16906;SDS011;8570;52.380;4.654;2022-09-17T04:51:34;7.60;;;1.20;;
16906;SDS011;8570;52.380;4.654;2022-09-17T04:56:36;6.55;;;1.50;;
16906;SDS011;8570;52.380;4.654;2022-09-17T05:01:38;8.45;;;1.20;;
16906;SDS011;8570;52.380;4.654;2022-09-17T05:06:41;5.40;;;1.60;;
16906;SDS011;8570;52.380;4.654;2022-09-17T05:11:43;4.90;;;1.13;;
16906;SDS011;8570;52.380;4.654;2022-09-17T05:16:45;9.57;;;1.48;;
16906;SDS011;8570;52.380;4.654;2022-09-17T05:21:49;7.23;;;1.47;;
16906;SDS011;8570;52.380;4.654;2022-09-17T05:26:50;11.50;;;1.53;;
16906;SDS011;8570;52.380;4.654;2022-09-17T05:31:52;11.07;;;1.70;;
16906;SDS011;8570;52.380;4.654;2022-09-17T05:36:57;9.13;;;1.85;;
16906;SDS011;8570;52.380;4.654;2022-09-17T05:41:59;10.23;;;1.40;;
16906;SDS011;8570;52.380;4.654;2022-09-17T05:47:01;5.10;;;1.23;;
16906;SDS011;8570;52.380;4.654;2022-09-17T05:52:04;6.20;;;1.48;;
16906;SDS011;8570;52.380;4.654;2022-09-17T05:57:06;7.63;;;1.53;;
16906;SDS011;8570;52.380;4.654;2022-09-17T06:02:09;10.07;;;1.53;;
16906;SDS011;8570;52.380;4.654;2022-09-17T06:07:15;7.47;;;1.83;;
16906;SDS011;8570;52.380;4.654;2022-09-17T06:12:16;5.33;;;1.10;;
16906;SDS011;8570;52.380;4.654;2022-09-17T06:17:18;3.47;;;1.00;;
16906;SDS011;8570;52.380;4.654;2022-09-17T06:22:21;16.00;;;2.10;;
16906;SDS011;8570;52.380;4.654;2022-09-17T06:27:24;10.20;;;1.92;;
16906;SDS011;8570;52.380;4.654;2022-09-17T06:32:31;6.57;;;1.13;;
16906;SDS011;8570;52.380;4.654;2022-09-17T06:37:34;2.40;;;0.90;;
16906;SDS011;8570;52.380;4.654;2022-09-17T06:42:39;5.93;;;1.05;;
16906;SDS011;8570;52.380;4.654;2022-09-17T06:47:41;7.20;;;1.27;;
16906;SDS011;8570;52.380;4.654;2022-09-17T06:52:47;11.52;;;2.38;;
16906;SDS011;8570;52.380;4.654;2022-09-17T06:57:49;15.48;;;1.73;;
16906;SDS011;8570;52.380;4.654;2022-09-17T07:02:55;4.80;;;1.75;;
16906;SDS011;8570;52.380;4.654;2022-09-17T07:08:00;11.40;;;2.53;;
16906;SDS011;8570;52.380;4.654;2022-09-17T07:13:03;5.85;;;1.80;;
16906;SDS011;8570;52.380;4.654;2022-09-17T07:18:08;6.70;;;1.25;;
16906;SDS011;8570;52.380;4.654;2022-09-17T07:23:11;3.60;;;1.45;;
16906;SDS011;8570;52.380;4.654;2022-09-17T07:28:13;2.55;;;1.25;;
16906;SDS011;8570;52.380;4.654;2022-09-17T07:33:15;5.18;;;1.20;;
16906;SDS011;8570;52.380;4.654;2022-09-17T07:38:19;2.92;;;1.38;;
16906;SDS011;8570;52.380;4.654;2022-09-17T07:43:21;12.88;;;2.10;;
16906;SDS011;8570;52.380;4.654;2022-09-17T07:48:24;7.97;;;1.52;;
16906;SDS011;8570;52.380;4.654;2022-09-17T07:53:28;11.38;;;1.83;;
16906;SDS011;8570;52.380;4.654;2022-09-17T07:58:31;9.65;;;2.08;;
16906;SDS011;8570;52.380;4.654;2022-09-17T08:03:35;10.30;;;1.83;;
16906;SDS011;8570;52.380;4.654;2022-09-17T08:08:40;8.55;;;1.90;;
16906;SDS011;8570;52.380;4.654;2022-09-17T08:13:42;6.80;;;1.50;;
16906;SDS011;8570;52.380;4.654;2022-09-17T08:18:48;9.15;;;1.90;;
16906;SDS011;8570;52.380;4.654;2022-09-17T08:23:56;8.18;;;1.88;;
16906;SDS011;8570;52.380;4.654;2022-09-17T08:28:58;8.68;;;1.60;;
16906;SDS011;8570;52.380;4.654;2022-09-17T08:34:00;7.85;;;1.85;;
16906;SDS011;8570;52.380;4.654;2022-09-17T08:39:03;10.70;;;2.30;;
16906;SDS011;8570;52.380;4.654;2022-09-17T08:44:08;11.23;;;2.00;;
16906;SDS011;8570;52.380;4.654;2022-09-17T08:49:22;8.10;;;1.92;;
16906;SDS011;8570;52.380;4.654;2022-09-17T08:54:32;5.70;;;1.20;;
16906;SDS011;8570;52.380;4.654;2022-09-17T08:59:41;6.82;;;1.63;;
16906;SDS011;8570;52.380;4.654;2022-09-17T09:04:56;7.97;;;1.48;;
16906;SDS011;8570;52.380;4.654;2022-09-17T09:10:05;4.25;;;1.30;;
16906;SDS011;8570;52.380;4.654;2022-09-17T09:15:30;4.50;;;1.13;;
16906;SDS011;8570;52.380;4.654;2022-09-17T09:20:38;7.30;;;1.58;;
16906;SDS011;8570;52.380;4.654;2022-09-17T09:25:50;6.43;;;1.63;;
16906;SDS011;8570;52.380;4.654;2022-09-17T09:30:56;5.85;;;1.20;;
16906;SDS011;8570;52.380;4.654;2022-09-17T09:36:04;5.47;;;1.42;;
16906;SDS011;8570;52.380;4.654;2022-09-17T09:41:09;8.13;;;2.00;;
16906;SDS011;8570;52.380;4.654;2022-09-17T09:46:21;9.40;;;2.28;;
16906;SDS011;8570;52.380;4.654;2022-09-17T09:51:39;12.57;;;1.45;;
16906;SDS011;8570;52.380;4.654;2022-09-17T09:56:55;13.30;;;2.42;;
16906;SDS011;8570;52.380;4.654;2022-09-17T10:01:58;6.50;;;1.52;;
16906;SDS011;8570;52.380;4.654;2022-09-17T10:07:00;7.38;;;1.63;;
16906;SDS011;8570;52.380;4.654;2022-09-17T10:12:14;9.43;;;1.75;;
16906;SDS011;8570;52.380;4.654;2022-09-17T10:17:18;6.80;;;1.75;;
16906;SDS011;8570;52.380;4.654;2022-09-17T10:22:23;5.53;;;1.90;;
16906;SDS011;8570;52.380;4.654;2022-09-17T10:27:30;11.48;;;2.15;;
16906;SDS011;8570;52.380;4.654;2022-09-17T10:32:33;9.93;;;2.28;;
16906;SDS011;8570;52.380;4.654;2022-09-17T10:37:41;14.55;;;2.20;;
16906;SDS011;8570;52.380;4.654;2022-09-17T10:42:48;10.25;;;1.73;;
16906;SDS011;8570;52.380;4.654;2022-09-17T10:47:51;5.85;;;1.70;;
16906;SDS011;8570;52.380;4.654;2022-09-17T10:52:54;7.45;;;1.88;;
16906;SDS011;8570;52.380;4.654;2022-09-17T11:09:05;8.00;;;1.92;;
16906;SDS011;8570;52.380;4.654;2022-09-17T11:20:31;7.32;;;2.15;;
16906;SDS011;8570;52.380;4.654;2022-09-17T11:31:44;13.13;;;2.70;;
16906;SDS011;8570;52.380;4.654;2022-09-17T11:37:15;9.00;;;2.40;;
16906;SDS011;8570;52.380;4.654;2022-09-17T11:42:27;14.63;;;2.97;;
16906;SDS011;8570;52.380;4.654;2022-09-17T11:47:34;7.18;;;2.00;;
16906;SDS011;8570;52.380;4.654;2022-09-17T11:52:42;10.80;;;2.22;;
16906;SDS011;8570;52.380;4.654;2022-09-17T11:57:55;13.43;;;2.40;;
16906;SDS011;8570;52.380;4.654;2022-09-17T12:03:03;7.82;;;2.65;;
16906;SDS011;8570;52.380;4.654;2022-09-17T12:08:18;17.30;;;2.88;;
16906;SDS011;8570;52.380;4.654;2022-09-17T12:13:33;12.48;;;3.13;;
16906;SDS011;8570;52.380;4.654;2022-09-17T12:18:51;14.95;;;2.70;;
16906;SDS011;8570;52.380;4.654;2022-09-17T12:24:02;10.93;;;1.98;;
16906;SDS011;8570;52.380;4.654;2022-09-17T12:29:16;14.55;;;2.50;;
16906;SDS011;8570;52.380;4.654;2022-09-17T12:34:33;14.27;;;2.20;;
16906;SDS011;8570;52.380;4.654;2022-09-17T12:39:55;8.38;;;1.88;;
16906;SDS011;8570;52.380;4.654;2022-09-17T12:45:28;9.02;;;1.77;;
16906;SDS011;8570;52.380;4.654;2022-09-17T12:50:42;10.52;;;2.38;;
16906;SDS011;8570;52.380;4.654;2022-09-17T12:56:07;10.93;;;1.92;;
16906;SDS011;8570;52.380;4.654;2022-09-17T13:01:20;7.70;;;1.52;;
16906;SDS011;8570;52.380;4.654;2022-09-17T13:12:15;11.32;;;2.20;;
16906;SDS011;8570;52.380;4.654;2022-09-17T13:17:28;6.20;;;1.70;;
16906;SDS011;8570;52.380;4.654;2022-09-17T13:22:42;6.50;;;1.75;;
16906;SDS011;8570;52.380;4.654;2022-09-17T13:27:47;5.22;;;1.50;;
16906;SDS011;8570;52.380;4.654;2022-09-17T13:32:53;7.80;;;1.85;;
16906;SDS011;8570;52.380;4.654;2022-09-17T13:37:55;9.88;;;1.92;;
16906;SDS011;8570;52.380;4.654;2022-09-17T13:43:04;12.05;;;2.05;;
16906;SDS011;8570;52.380;4.654;2022-09-17T13:48:10;5.82;;;1.73;;
16906;SDS011;8570;52.380;4.654;2022-09-17T13:53:20;5.72;;;1.75;;
16906;SDS011;8570;52.380;4.654;2022-09-17T13:58:33;15.77;;;2.80;;
16906;SDS011;8570;52.380;4.654;2022-09-17T14:03:48;9.63;;;2.28;;
16906;SDS011;8570;52.380;4.654;2022-09-17T14:08:56;10.85;;;2.13;;
16906;SDS011;8570;52.380;4.654;2022-09-17T14:19:46;6.65;;;1.77;;
16906;SDS011;8570;52.380;4.654;2022-09-17T14:24:55;9.43;;;2.00;;
16906;SDS011;8570;52.380;4.654;2022-09-17T14:30:14;10.35;;;1.90;;
16906;SDS011;8570;52.380;4.654;2022-09-17T14:35:21;13.70;;;2.33;;
16906;SDS011;8570;52.380;4.654;2022-09-17T14:40:42;8.10;;;2.40;;
16906;SDS011;8570;52.380;4.654;2022-09-17T14:45:53;10.25;;;1.95;;
16906;SDS011;8570;52.380;4.654;2022-09-17T14:56:51;8.43;;;1.90;;
16906;SDS011;8570;52.380;4.654;2022-09-17T15:02:00;6.95;;;2.03;;
16906;SDS011;8570;52.380;4.654;2022-09-17T15:07:10;6.13;;;1.70;;
16906;SDS011;8570;52.380;4.654;2022-09-17T15:12:47;9.50;;;1.90;;
16906;SDS011;8570;52.380;4.654;2022-09-17T15:36:20;6.00;;;1.73;;
16906;SDS011;8570;52.380;4.654;2022-09-17T15:41:29;10.85;;;2.42;;
16906;SDS011;8570;52.380;4.654;2022-09-17T15:46:42;9.75;;;2.35;;
16906;SDS011;8570;52.380;4.654;2022-09-17T15:51:47;13.85;;;2.70;;
16906;SDS011;8570;52.380;4.654;2022-09-17T15:57:00;7.97;;;1.88;;
16906;SDS011;8570;52.380;4.654;2022-09-17T16:02:22;9.45;;;1.88;;
16906;SDS011;8570;52.380;4.654;2022-09-17T16:07:42;10.27;;;1.83;;
16906;SDS011;8570;52.380;4.654;2022-09-17T16:12:51;12.70;;;2.60;;
16906;SDS011;8570;52.380;4.654;2022-09-17T16:18:09;5.47;;;1.65;;
16906;SDS011;8570;52.380;4.654;2022-09-17T16:23:29;7.65;;;1.58;;
16906;SDS011;8570;52.380;4.654;2022-09-17T16:28:34;8.27;;;1.70;;
16906;SDS011;8570;52.380;4.654;2022-09-17T16:33:49;12.88;;;1.70;;
16906;SDS011;8570;52.380;4.654;2022-09-17T16:39:05;9.32;;;2.20;;
16906;SDS011;8570;52.380;4.654;2022-09-17T16:44:11;8.53;;;1.90;;
16906;SDS011;8570;52.380;4.654;2022-09-17T16:49:13;7.13;;;2.00;;
16906;SDS011;8570;52.380;4.654;2022-09-17T16:54:20;11.55;;;2.08;;
16906;SDS011;8570;52.380;4.654;2022-09-17T16:59:22;12.10;;;1.65;;
16906;SDS011;8570;52.380;4.654;2022-09-17T17:04:24;9.77;;;1.52;;
16906;SDS011;8570;52.380;4.654;2022-09-17T17:09:29;7.55;;;1.67;;
16906;SDS011;8570;52.380;4.654;2022-09-17T17:14:41;9.45;;;1.50;;
16906;SDS011;8570;52.380;4.654;2022-09-17T17:19:53;11.73;;;2.83;;
16906;SDS011;8570;52.380;4.654;2022-09-17T17:25:08;8.38;;;1.98;;
16906;SDS011;8570;52.380;4.654;2022-09-17T17:30:19;8.48;;;1.92;;
16906;SDS011;8570;52.380;4.654;2022-09-17T17:35:22;9.23;;;1.90;;
16906;SDS011;8570;52.380;4.654;2022-09-17T17:40:26;10.18;;;2.00;;
16906;SDS011;8570;52.380;4.654;2022-09-17T17:45:28;9.25;;;2.28;;
16906;SDS011;8570;52.380;4.654;2022-09-17T17:50:30;9.15;;;2.35;;
16906;SDS011;8570;52.380;4.654;2022-09-17T17:55:34;12.93;;;2.75;;
16906;SDS011;8570;52.380;4.654;2022-09-17T18:00:38;11.85;;;2.10;;
16906;SDS011;8570;52.380;4.654;2022-09-17T18:05:43;8.88;;;2.53;;
16906;SDS011;8570;52.380;4.654;2022-09-17T18:10:53;13.65;;;2.55;;
16906;SDS011;8570;52.380;4.654;2022-09-17T18:15:59;12.20;;;3.17;;
16906;SDS011;8570;52.380;4.654;2022-09-17T18:21:03;8.25;;;2.25;;
16906;SDS011;8570;52.380;4.654;2022-09-17T18:26:13;14.63;;;2.90;;
16906;SDS011;8570;52.380;4.654;2022-09-17T18:31:27;7.25;;;2.40;;
16906;SDS011;8570;52.380;4.654;2022-09-17T18:36:30;9.05;;;2.50;;
16906;SDS011;8570;52.380;4.654;2022-09-17T18:41:36;11.63;;;2.40;;
16906;SDS011;8570;52.380;4.654;2022-09-17T18:46:39;8.30;;;2.60;;
16906;SDS011;8570;52.380;4.654;2022-09-17T18:51:42;12.25;;;2.58;;
16906;SDS011;8570;52.380;4.654;2022-09-17T18:56:45;14.27;;;3.30;;
16906;SDS011;8570;52.380;4.654;2022-09-17T19:01:47;24.40;;;3.05;;
16906;SDS011;8570;52.380;4.654;2022-09-17T19:06:49;10.85;;;2.72;;
16906;SDS011;8570;52.380;4.654;2022-09-17T19:11:53;15.80;;;2.75;;
16906;SDS011;8570;52.380;4.654;2022-09-17T19:16:59;11.30;;;2.72;;
16906;SDS011;8570;52.380;4.654;2022-09-17T19:22:01;11.15;;;2.30;;
16906;SDS011;8570;52.380;4.654;2022-09-17T19:27:05;20.90;;;3.42;;
16906;SDS011;8570;52.380;4.654;2022-09-17T19:32:07;13.00;;;2.83;;
16906;SDS011;8570;52.380;4.654;2022-09-17T19:37:09;10.40;;;2.05;;
16906;SDS011;8570;52.380;4.654;2022-09-17T19:42:13;4.88;;;1.67;;
16906;SDS011;8570;52.380;4.654;2022-09-17T19:47:15;6.25;;;1.80;;
16906;SDS011;8570;52.380;4.654;2022-09-17T19:52:17;5.75;;;2.03;;
16906;SDS011;8570;52.380;4.654;2022-09-17T19:57:21;6.38;;;2.33;;
16906;SDS011;8570;52.380;4.654;2022-09-17T20:02:26;10.32;;;3.53;;
16906;SDS011;8570;52.380;4.654;2022-09-17T20:07:28;15.77;;;3.08;;
16906;SDS011;8570;52.380;4.654;2022-09-17T20:12:31;16.23;;;3.03;;
16906;SDS011;8570;52.380;4.654;2022-09-17T20:17:34;10.65;;;2.60;;
16906;SDS011;8570;52.380;4.654;2022-09-17T20:22:36;17.98;;;2.45;;
16906;SDS011;8570;52.380;4.654;2022-09-17T20:27:39;10.02;;;2.35;;
16906;SDS011;8570;52.380;4.654;2022-09-17T20:32:41;13.15;;;2.75;;
16906;SDS011;8570;52.380;4.654;2022-09-17T20:37:43;8.02;;;1.88;;
16906;SDS011;8570;52.380;4.654;2022-09-17T20:42:47;5.20;;;1.40;;
16906;SDS011;8570;52.380;4.654;2022-09-17T20:47:48;7.30;;;1.67;;
16906;SDS011;8570;52.380;4.654;2022-09-17T20:52:51;7.68;;;2.20;;
16906;SDS011;8570;52.380;4.654;2022-09-17T20:57:54;11.60;;;2.70;;
16906;SDS011;8570;52.380;4.654;2022-09-17T21:02:56;12.85;;;2.58;;
16906;SDS011;8570;52.380;4.654;2022-09-17T21:07:58;14.93;;;2.60;;
16906;SDS011;8570;52.380;4.654;2022-09-17T21:13:03;18.90;;;3.05;;
16906;SDS011;8570;52.380;4.654;2022-09-17T21:18:05;18.50;;;2.88;;
16906;SDS011;8570;52.380;4.654;2022-09-17T21:23:07;11.05;;;3.13;;
16906;SDS011;8570;52.380;4.654;2022-09-17T21:28:10;18.40;;;3.05;;
16906;SDS011;8570;52.380;4.654;2022-09-17T21:33:12;16.98;;;2.70;;
16906;SDS011;8570;52.380;4.654;2022-09-17T21:38:21;9.10;;;2.50;;
16906;SDS011;8570;52.380;4.654;2022-09-17T21:43:24;11.00;;;1.85;;
16906;SDS011;8570;52.380;4.654;2022-09-17T21:48:27;8.50;;;2.10;;
16906;SDS011;8570;52.380;4.654;2022-09-17T21:53:29;10.70;;;2.38;;
16906;SDS011;8570;52.380;4.654;2022-09-17T21:58:33;17.33;;;2.10;;
16906;SDS011;8570;52.380;4.654;2022-09-17T22:03:35;12.27;;;2.13;;
16906;SDS011;8570;52.380;4.654;2022-09-17T22:08:37;14.73;;;2.35;;
16906;SDS011;8570;52.380;4.654;2022-09-17T22:13:41;12.65;;;3.17;;
16906;SDS011;8570;52.380;4.654;2022-09-17T22:18:52;15.38;;;2.75;;
16906;SDS011;8570;52.380;4.654;2022-09-17T22:23:55;23.10;;;4.07;;
16906;SDS011;8570;52.380;4.654;2022-09-17T22:29:00;14.65;;;2.88;;
16906;SDS011;8570;52.380;4.654;2022-09-17T22:34:05;16.08;;;2.88;;
16906;SDS011;8570;52.380;4.654;2022-09-17T22:39:08;14.00;;;2.53;;
16906;SDS011;8570;52.380;4.654;2022-09-17T22:44:12;12.07;;;2.50;;
16906;SDS011;8570;52.380;4.654;2022-09-17T22:49:16;13.43;;;3.35;;
16906;SDS011;8570;52.380;4.654;2022-09-17T22:54:18;13.80;;;3.08;;
16906;SDS011;8570;52.380;4.654;2022-09-17T22:59:21;13.70;;;3.42;;
16906;SDS011;8570;52.380;4.654;2022-09-17T23:04:23;12.48;;;2.80;;
16906;SDS011;8570;52.380;4.654;2022-09-17T23:09:25;10.30;;;2.47;;
16906;SDS011;8570;52.380;4.654;2022-09-17T23:14:28;9.77;;;1.83;;
16906;SDS011;8570;52.380;4.654;2022-09-17T23:19:30;6.95;;;1.90;;
16906;SDS011;8570;52.380;4.654;2022-09-17T23:24:32;9.00;;;1.77;;
16906;SDS011;8570;52.380;4.654;2022-09-17T23:29:38;6.63;;;1.70;;
16906;SDS011;8570;52.380;4.654;2022-09-17T23:34:40;8.00;;;2.60;;
16906;SDS011;8570;52.380;4.654;2022-09-17T23:39:42;8.45;;;1.73;;
16906;SDS011;8570;52.380;4.654;2022-09-17T23:44:45;9.07;;;2.20;;
16906;SDS011;8570;52.380;4.654;2022-09-17T23:49:47;10.20;;;2.42;;
16906;SDS011;8570;52.380;4.654;2022-09-17T23:54:49;12.98;;;2.38;;
16906;SDS011;8570;52.380;4.654;2022-09-17T23:59:52;15.57;;;2.55;;
